createdAt,value
2023-03-29T00:01:43.365Z,99052.28
2023-03-29T00:04:13.872Z,99048.75
2023-03-29T00:06:41.978Z,99049.69
2023-03-29T00:09:09.894Z,99047.94
2023-03-29T00:11:36.543Z,99043.59
2023-03-29T00:14:03.063Z,99040.03
2023-03-29T00:16:32.455Z,99047.91
2023-03-29T00:18:59.128Z,99045.22
2023-03-29T00:21:25.638Z,99045.25
2023-03-29T00:23:52.083Z,99046.97
2023-03-29T00:26:18.622Z,99047.75
2023-03-29T00:28:45.098Z,99046.00
2023-03-29T00:31:14.889Z,99050.41
2023-03-29T00:33:42.320Z,99039.06
2023-03-29T00:36:11.204Z,99040.75
2023-03-29T00:38:38.576Z,99038.19
2023-03-29T00:41:06.804Z,99036.31
2023-03-29T00:43:57.151Z,99039.81
2023-03-29T00:46:24.614Z,99042.44
2023-03-29T00:48:54.898Z,99050.25
2023-03-29T00:51:25.031Z,99045.00
2023-03-29T00:53:56.077Z,99040.59
2023-03-29T00:56:37.036Z,99040.53
2023-03-29T00:59:13.363Z,99028.31
2023-03-29T01:01:45.786Z,99034.38
2023-03-29T01:04:22.223Z,99025.63
2023-03-29T01:07:28.397Z,99010.72
2023-03-29T01:10:04.483Z,99020.34
2023-03-29T01:12:36.041Z,99019.44
2023-03-29T01:15:09.079Z,99018.53
2023-03-29T01:17:35.673Z,99005.34
2023-03-29T01:20:14.151Z,99000.94
2023-03-29T01:23:08.287Z,99006.19
2023-03-29T01:25:49.742Z,99000.88
2023-03-29T01:28:28.384Z,98993.00
2023-03-29T01:31:03.864Z,98994.69
2023-03-29T01:33:37.502Z,98983.28
2023-03-29T01:36:16.411Z,98984.19
2023-03-29T01:39:05.022Z,98973.66
2023-03-29T01:42:03.776Z,98973.66
2023-03-29T01:44:56.536Z,98960.34
2023-03-29T01:48:00.556Z,98964.78
2023-03-29T01:50:43.166Z,98964.72
2023-03-29T01:53:36.417Z,98970.81
2023-03-29T01:56:08.703Z,98960.25
2023-03-29T01:58:41.271Z,98969.84
2023-03-29T02:01:10.980Z,98959.38
2023-03-29T02:03:46.868Z,98957.53
2023-03-29T02:06:18.880Z,98957.59
2023-03-29T02:08:46.659Z,98968.09
2023-03-29T02:11:13.902Z,98959.28
2023-03-29T02:13:41.110Z,98968.81
2023-03-29T02:16:12.866Z,98964.38
2023-03-29T02:18:42.452Z,98958.25
2023-03-29T02:21:14.305Z,98960.88
2023-03-29T02:23:46.619Z,98954.72
2023-03-29T02:26:14.456Z,98960.88
2023-03-29T02:28:42.252Z,98951.22
2023-03-29T02:31:15.487Z,98948.59
2023-03-29T02:33:58.745Z,98940.78
2023-03-29T02:36:31.129Z,98936.34
2023-03-29T02:39:00.784Z,98929.34
2023-03-29T02:41:28.606Z,98923.19
2023-03-29T02:43:57.372Z,98917.91
2023-03-29T02:46:24.510Z,98913.59
2023-03-29T02:48:53.309Z,98920.53
2023-03-29T02:51:24.043Z,98914.47
2023-03-29T02:54:19.455Z,98908.28
2023-03-29T02:56:49.167Z,98904.78
2023-03-29T02:59:19.363Z,98907.31
2023-03-29T03:01:46.271Z,98903.78
2023-03-29T03:04:13.352Z,98894.19
2023-03-29T03:06:40.477Z,98900.34
2023-03-29T03:09:07.630Z,98887.19
2023-03-29T03:11:35.070Z,98889.81
2023-03-29T03:14:01.822Z,98888.94
2023-03-29T03:16:28.349Z,98891.53
2023-03-29T03:18:55.710Z,98887.09
2023-03-29T03:21:28.125Z,98879.22
2023-03-29T03:23:55.789Z,98878.41
2023-03-29T03:26:24.794Z,98879.16
2023-03-29T03:28:51.278Z,98874.78
2023-03-29T03:31:17.800Z,98875.63
2023-03-29T03:33:44.719Z,98876.47
2023-03-29T03:36:11.536Z,98877.28
2023-03-29T03:38:38.374Z,98871.09
2023-03-29T03:41:06.924Z,98871.06
2023-03-29T03:43:34.479Z,98876.34
2023-03-29T03:46:01.995Z,98874.56
2023-03-29T03:48:28.586Z,98865.84
2023-03-29T03:50:58.132Z,98868.56
2023-03-29T03:53:28.521Z,98861.59
2023-03-29T03:55:58.332Z,98871.97
2023-03-29T03:58:28.411Z,98860.56
2023-03-29T04:00:55.001Z,98852.66
2023-03-29T04:03:21.743Z,98853.50
2023-03-29T04:05:48.674Z,98842.13
2023-03-29T04:08:15.186Z,98832.47
2023-03-29T04:10:42.077Z,98829.88
2023-03-29T04:13:08.538Z,98831.63
2023-03-29T04:15:38.669Z,98822.03
2023-03-29T04:18:07.203Z,98827.28
2023-03-29T04:20:33.834Z,98822.03
2023-03-29T04:23:00.468Z,98825.56
2023-03-29T04:25:26.926Z,98823.81
2023-03-29T04:27:56.887Z,98811.59
2023-03-29T04:30:23.477Z,98801.97
2023-03-29T04:32:50.121Z,98807.25
2023-03-29T04:35:16.661Z,98806.41
2023-03-29T04:37:43.631Z,98799.38
2023-03-29T04:40:14.814Z,98797.56
2023-03-29T04:42:45.843Z,98793.22
2023-03-29T04:45:18.061Z,98801.09
2023-03-29T04:47:45.668Z,98787.97
2023-03-29T04:50:13.814Z,98799.47
2023-03-29T04:52:40.904Z,98781.13
2023-03-29T04:55:08.333Z,98779.41
2023-03-29T04:57:34.826Z,98786.41
2023-03-29T05:00:01.397Z,98791.69
2023-03-29T05:02:32.453Z,98802.19
2023-03-29T05:04:59.281Z,98798.66
2023-03-29T05:07:28.373Z,98787.28
2023-03-29T05:09:54.822Z,98786.44
2023-03-29T05:12:21.313Z,98792.59
2023-03-29T05:14:47.838Z,98796.09
2023-03-29T05:17:14.395Z,98801.34
2023-03-29T05:19:41.318Z,98806.53
2023-03-29T05:22:08.955Z,98801.31
2023-03-29T05:24:35.503Z,98802.19
2023-03-29T05:27:02.222Z,98798.69
2023-03-29T05:29:28.749Z,98815.31
2023-03-29T05:31:55.313Z,98794.34
2023-03-29T05:34:21.885Z,98796.16
2023-03-29T05:36:49.094Z,98791.00
2023-03-29T05:39:15.585Z,98793.63
2023-03-29T05:41:42.038Z,98784.00
2023-03-29T05:44:08.700Z,98783.16
2023-03-29T05:46:35.974Z,98780.63
2023-03-29T05:49:02.630Z,98765.88
2023-03-29T05:51:29.358Z,98766.78
2023-03-29T05:53:55.894Z,98766.81
2023-03-29T05:56:22.599Z,98752.88
2023-03-29T05:58:49.465Z,98760.78
2023-03-29T06:01:18.002Z,98758.22
2023-03-29T06:03:46.217Z,98772.22
2023-03-29T06:06:18.867Z,98768.75
2023-03-29T06:08:45.368Z,98771.38
2023-03-29T06:11:13.447Z,98774.03
2023-03-29T06:13:41.519Z,98781.91
2023-03-29T06:16:09.432Z,98767.97
2023-03-29T06:18:36.576Z,98764.53
2023-03-29T06:21:04.063Z,98768.97
2023-03-29T06:23:31.340Z,98774.28
2023-03-29T06:26:00.181Z,98764.69
2023-03-29T06:28:26.971Z,98759.56
2023-03-29T06:30:56.190Z,98767.41
2023-03-29T06:33:24.216Z,98760.44
2023-03-29T06:35:50.796Z,98760.44
2023-03-29T06:38:17.304Z,98762.22
2023-03-29T06:40:44.722Z,98765.75
2023-03-29T06:43:11.277Z,98770.13
2023-03-29T06:45:38.796Z,98771.13
2023-03-29T06:48:08.002Z,98769.38
2023-03-29T06:50:35.399Z,98775.56
2023-03-29T06:53:02.238Z,98775.66
2023-03-29T06:55:28.801Z,98769.56
2023-03-29T06:57:55.639Z,98780.06
2023-03-29T07:00:28.617Z,98778.38
2023-03-29T07:02:56.574Z,98778.44
2023-03-29T07:05:23.967Z,98775.91
2023-03-29T07:07:55.110Z,98789.03
2023-03-29T07:10:28.064Z,98780.31
2023-03-29T07:12:55.271Z,98775.94
2023-03-29T07:15:22.318Z,98783.84
2023-03-29T07:17:49.278Z,98785.63
2023-03-29T07:20:16.692Z,98785.72
2023-03-29T07:22:44.709Z,98782.28
2023-03-29T07:25:12.273Z,98776.19
2023-03-29T07:27:40.855Z,98787.63
2023-03-29T07:30:12.179Z,98789.41
2023-03-29T07:32:39.571Z,98791.19
2023-03-29T07:35:07.998Z,98794.72
2023-03-29T07:37:37.433Z,98799.19
2023-03-29T07:40:09.143Z,98800.97
2023-03-29T07:42:38.774Z,98791.31
2023-03-29T07:45:07.033Z,98794.81
2023-03-29T07:47:35.262Z,98797.47
2023-03-29T07:50:02.393Z,98791.38
2023-03-29T07:52:30.054Z,98779.16
2023-03-29T07:54:57.428Z,98779.28
2023-03-29T07:57:25.451Z,98774.16
2023-03-29T07:59:53.027Z,98778.59
2023-03-29T08:02:21.017Z,98781.38
2023-03-29T08:04:47.895Z,98779.72
2023-03-29T08:07:17.030Z,98770.06
2023-03-29T08:09:45.563Z,98779.72
2023-03-29T08:12:12.150Z,98775.41
2023-03-29T08:14:38.700Z,98774.63
2023-03-29T08:17:05.317Z,98774.75
2023-03-29T08:19:32.270Z,98766.03
2023-03-29T08:21:59.057Z,98767.88
2023-03-29T08:24:26.443Z,98759.19
2023-03-29T08:26:53.415Z,98759.22
2023-03-29T08:29:19.919Z,98755.78
2023-03-29T08:31:46.497Z,98759.34
2023-03-29T08:34:13.322Z,98762.00
2023-03-29T08:36:40.321Z,98748.06
2023-03-29T08:39:06.805Z,98750.78
2023-03-29T08:41:42.660Z,98747.31
2023-03-29T08:44:20.355Z,98748.31
2023-03-29T08:47:01.818Z,98739.72
2023-03-29T08:49:29.125Z,98745.91
2023-03-29T08:52:00.446Z,98738.00
2023-03-29T08:54:33.160Z,98741.59
2023-03-29T08:57:37.501Z,98744.31
2023-03-29T09:00:07.038Z,98739.91
2023-03-29T09:02:36.053Z,98749.63
2023-03-29T09:05:14.616Z,98740.03
2023-03-29T09:07:44.546Z,98739.16
2023-03-29T09:10:18.314Z,98745.34
2023-03-29T09:13:03.824Z,98755.91
2023-03-29T09:15:45.045Z,98760.28
2023-03-29T09:18:33.186Z,98758.53
2023-03-29T09:21:16.449Z,98762.06
2023-03-29T09:23:49.113Z,98763.81
2023-03-29T09:26:31.162Z,98769.16
2023-03-29T09:29:17.866Z,98769.16
2023-03-29T09:31:45.212Z,98765.66
2023-03-29T09:34:18.468Z,98753.38
2023-03-29T09:36:53.965Z,98751.66
2023-03-29T09:39:22.196Z,98757.81
2023-03-29T09:42:04.449Z,98746.38
2023-03-29T09:44:38.640Z,98741.13
2023-03-29T09:47:19.009Z,98742.91
2023-03-29T09:49:49.291Z,98735.91
2023-03-29T09:52:18.168Z,98736.81
2023-03-29T09:54:44.758Z,98741.25
2023-03-29T09:57:17.308Z,98735.97
2023-03-29T09:59:49.975Z,98731.56
2023-03-29T10:02:20.363Z,98728.03
2023-03-29T10:04:55.654Z,98725.38
2023-03-29T10:07:22.685Z,98727.19
2023-03-29T10:09:52.004Z,98733.34
2023-03-29T10:12:19.929Z,98729.81
2023-03-29T10:14:53.008Z,98728.94
2023-03-29T10:17:29.336Z,98727.16
2023-03-29T10:19:58.668Z,98726.28
2023-03-29T10:22:34.565Z,98721.00
2023-03-29T10:25:01.115Z,98730.69
2023-03-29T10:27:29.444Z,98714.84
2023-03-29T10:29:58.279Z,98706.06
2023-03-29T10:32:35.625Z,98706.06
2023-03-29T10:35:19.173Z,98709.56
2023-03-29T10:37:50.631Z,98699.88
2023-03-29T10:40:45.059Z,98700.78
2023-03-29T10:43:13.142Z,98704.25
2023-03-29T10:45:40.226Z,98708.69
2023-03-29T10:48:14.437Z,98712.19
2023-03-29T10:50:41.578Z,98714.84
2023-03-29T10:53:24.097Z,98716.59
2023-03-29T10:56:09.358Z,98726.28
2023-03-29T10:59:01.343Z,98720.94
2023-03-29T11:01:54.426Z,98722.69
2023-03-29T11:04:46.544Z,98720.97
2023-03-29T11:07:19.723Z,98727.13
2023-03-29T11:10:25.964Z,98722.75
2023-03-29T11:13:14.216Z,98725.41
2023-03-29T11:16:02.540Z,98716.59
2023-03-29T11:18:54.299Z,98720.13
2023-03-29T11:21:46.923Z,98720.09
2023-03-29T11:24:38.121Z,98711.28
2023-03-29T11:27:19.881Z,98702.41
2023-03-29T11:30:13.205Z,98693.44
2023-03-29T11:33:12.239Z,98691.59
2023-03-29T11:35:57.163Z,98670.41
2023-03-29T11:38:34.329Z,98672.13
2023-03-29T11:41:08.467Z,98665.06
2023-03-29T11:43:55.073Z,98673.88
2023-03-29T11:46:37.831Z,98669.47
2023-03-29T11:49:13.827Z,98668.66
2023-03-29T11:51:57.805Z,98659.78
2023-03-29T11:54:31.416Z,98665.91
2023-03-29T11:57:18.734Z,98670.41
2023-03-29T12:00:12.417Z,98668.59
2023-03-29T12:02:46.144Z,98666.75
2023-03-29T12:05:22.731Z,98671.09
2023-03-29T12:08:00.797Z,98659.56
2023-03-29T12:10:34.451Z,98658.53
2023-03-29T12:13:10.459Z,98643.03
2023-03-29T12:15:44.319Z,98648.00
2023-03-29T12:18:22.632Z,98643.47
2023-03-29T12:20:55.932Z,98648.50
2023-03-29T12:23:22.592Z,98641.31
2023-03-29T12:26:08.653Z,98627.56
2023-03-29T12:28:59.734Z,98625.50
2023-03-29T12:31:51.033Z,98622.13
2023-03-29T12:34:36.468Z,98625.28
2023-03-29T12:37:03.472Z,98628.59
2023-03-29T12:39:32.814Z,98634.00
2023-03-29T12:42:17.739Z,98626.34
2023-03-29T12:44:50.535Z,98624.75
2023-03-29T12:47:26.200Z,98614.97
2023-03-29T12:49:56.567Z,98610.53
2023-03-29T12:52:35.272Z,98621.13
2023-03-29T12:55:05.231Z,98615.94
2023-03-29T12:57:44.351Z,98613.41
2023-03-29T13:00:21.950Z,98620.44
2023-03-29T13:03:17.962Z,98614.34
2023-03-29T13:05:44.581Z,98618.84
2023-03-29T13:08:42.346Z,98630.38
2023-03-29T13:11:25.506Z,98623.31
2023-03-29T13:13:52.313Z,98629.44
2023-03-29T13:16:28.227Z,98634.81
2023-03-29T13:19:06.662Z,98619.84
2023-03-29T13:21:59.817Z,98626.66
2023-03-29T13:24:41.997Z,98631.03
2023-03-29T13:27:21.855Z,98631.13
2023-03-29T13:30:29.891Z,98619.56
2023-03-29T13:33:16.892Z,98628.38
2023-03-29T13:36:21.151Z,98618.38
2023-03-29T13:38:49.925Z,98607.69
2023-03-29T13:41:31.869Z,98613.13
2023-03-29T13:43:58.691Z,98614.19
2023-03-29T13:46:38.643Z,98624.00
2023-03-29T13:49:14.376Z,98629.41
2023-03-29T13:51:47.619Z,98615.25
2023-03-29T13:54:20.279Z,98613.44
2023-03-29T13:57:10.139Z,98615.97
2023-03-29T13:59:52.168Z,98597.41
2023-03-29T14:02:36.853Z,98596.47
2023-03-29T14:05:05.717Z,98592.03
2023-03-29T14:07:35.607Z,98598.28
2023-03-29T14:10:02.502Z,98596.56
2023-03-29T14:12:36.001Z,98596.56
2023-03-29T14:15:05.793Z,98590.47
2023-03-29T14:17:33.598Z,98589.66
2023-03-29T14:20:02.829Z,98595.03
2023-03-29T14:22:32.758Z,98590.69
2023-03-29T14:25:07.299Z,98599.50
2023-03-29T14:27:37.115Z,98593.41
2023-03-29T14:30:22.089Z,98594.28
2023-03-29T14:32:50.623Z,98599.63
2023-03-29T14:35:17.547Z,98601.38
2023-03-29T14:37:45.001Z,98589.03
2023-03-29T14:40:21.072Z,98594.31
2023-03-29T14:42:48.735Z,98596.06
2023-03-29T14:45:18.680Z,98604.00
2023-03-29T14:47:46.430Z,98598.69
2023-03-29T14:50:26.610Z,98596.03
2023-03-29T14:52:54.396Z,98596.91
2023-03-29T14:55:23.843Z,98596.91
2023-03-29T14:57:53.236Z,98595.16
2023-03-29T15:00:26.795Z,98588.97
2023-03-29T15:02:57.484Z,98587.19
2023-03-29T15:05:39.526Z,98587.22
2023-03-29T15:08:10.314Z,98576.63
2023-03-29T15:10:38.695Z,98573.97
2023-03-29T15:13:07.781Z,98568.69
2023-03-29T15:15:38.413Z,98568.66
2023-03-29T15:18:08.019Z,98573.00
2023-03-29T15:20:38.322Z,98569.47
2023-03-29T15:23:21.137Z,98563.31
2023-03-29T15:25:56.903Z,98561.59
2023-03-29T15:28:32.652Z,98550.97
2023-03-29T15:31:11.162Z,98545.63
2023-03-29T15:33:39.995Z,98545.63
2023-03-29T15:36:08.891Z,98544.81
2023-03-29T15:38:43.823Z,98545.72
2023-03-29T15:41:12.235Z,98551.03
2023-03-29T15:43:40.636Z,98533.41
2023-03-29T15:46:07.541Z,98541.34
2023-03-29T15:48:34.297Z,98527.22
2023-03-29T15:51:04.807Z,98524.63
2023-03-29T15:53:32.730Z,98521.06
2023-03-29T15:56:04.021Z,98529.00
2023-03-29T15:58:32.428Z,98514.03
2023-03-29T16:01:19.326Z,98516.66
2023-03-29T16:03:47.800Z,98516.59
2023-03-29T16:06:14.993Z,98513.03
2023-03-29T16:08:41.847Z,98508.63
2023-03-29T16:11:08.348Z,98509.56
2023-03-29T16:13:34.947Z,98506.91
2023-03-29T16:16:01.923Z,98491.00
2023-03-29T16:18:28.584Z,98495.44
2023-03-29T16:20:59.350Z,98497.22
2023-03-29T16:23:26.502Z,98491.94
2023-03-29T16:25:53.142Z,98493.69
2023-03-29T16:28:19.606Z,98494.56
2023-03-29T16:30:46.582Z,98488.38
2023-03-29T16:33:13.171Z,98494.59
2023-03-29T16:35:40.410Z,98491.09
2023-03-29T16:38:08.146Z,98491.13
2023-03-29T16:40:35.916Z,98495.53
2023-03-29T16:43:02.822Z,98484.97
2023-03-29T16:45:38.472Z,98477.06
2023-03-29T16:48:05.109Z,98481.47
2023-03-29T16:50:31.698Z,98476.19
2023-03-29T16:52:58.170Z,98484.16
2023-03-29T16:55:24.682Z,98474.47
2023-03-29T16:57:52.201Z,98473.59
2023-03-29T17:00:20.203Z,98473.59
2023-03-29T17:02:49.724Z,98474.47
2023-03-29T17:05:17.540Z,98474.50
2023-03-29T17:07:44.397Z,98472.72
2023-03-29T17:10:12.351Z,98468.34
2023-03-29T17:12:39.004Z,98463.94
2023-03-29T17:15:07.526Z,98470.97
2023-03-29T17:17:34.785Z,98475.41
2023-03-29T17:20:01.537Z,98474.53
2023-03-29T17:22:28.067Z,98475.41
2023-03-29T17:24:54.557Z,98471.03
2023-03-29T17:27:21.206Z,98475.41
2023-03-29T17:29:47.906Z,98471.91
2023-03-29T17:32:14.485Z,98474.56
2023-03-29T17:34:41.565Z,98465.75
2023-03-29T17:37:08.088Z,98478.13
2023-03-29T17:39:37.447Z,98463.16
2023-03-29T17:42:04.911Z,98455.22
2023-03-29T17:44:33.178Z,98462.22
2023-03-29T17:47:00.502Z,98456.94
2023-03-29T17:49:27.167Z,98456.97
2023-03-29T17:51:53.656Z,98462.25
2023-03-29T17:54:20.189Z,98458.72
2023-03-29T17:56:46.741Z,98458.75
2023-03-29T17:59:13.226Z,98457.00
2023-03-29T18:01:39.975Z,98463.16
2023-03-29T18:04:06.621Z,98472.88
2023-03-29T18:06:33.374Z,98468.50
2023-03-29T18:09:01.552Z,98463.25
2023-03-29T18:11:28.479Z,98461.50
2023-03-29T18:13:59.230Z,98458.84
2023-03-29T18:16:26.068Z,98452.69
2023-03-29T18:18:52.588Z,98453.59
2023-03-29T18:21:19.159Z,98451.81
2023-03-29T18:23:47.608Z,98455.34
2023-03-29T18:26:16.306Z,98450.91
2023-03-29T18:28:46.947Z,98451.81
2023-03-29T18:31:14.242Z,98452.69
2023-03-29T18:33:40.833Z,98452.75
2023-03-29T18:36:10.836Z,98446.63
2023-03-29T18:38:40.494Z,98450.13
2023-03-29T18:41:08.536Z,98452.78
2023-03-29T18:43:37.012Z,98451.91
2023-03-29T18:46:03.933Z,98451.09
2023-03-29T18:48:34.291Z,98447.56
2023-03-29T18:51:01.205Z,98460.81
2023-03-29T18:53:28.334Z,98456.44
2023-03-29T18:55:55.671Z,98450.28
2023-03-29T18:58:24.015Z,98454.66
2023-03-29T19:00:51.347Z,98455.50
2023-03-29T19:03:18.326Z,98457.25
2023-03-29T19:05:44.882Z,98454.59
2023-03-29T19:08:11.379Z,98453.72
2023-03-29T19:10:39.221Z,98462.56
2023-03-29T19:13:06.103Z,98464.25
2023-03-29T19:15:33.866Z,98455.41
2023-03-29T19:18:00.461Z,98450.16
2023-03-29T19:20:27.389Z,98450.13
2023-03-29T19:22:53.991Z,98444.91
2023-03-29T19:25:20.668Z,98439.63
2023-03-29T19:27:47.734Z,98432.53
2023-03-29T19:30:14.695Z,98434.25
2023-03-29T19:32:41.171Z,98426.31
2023-03-29T19:35:09.556Z,98430.69
2023-03-29T19:37:36.198Z,98413.88
2023-03-29T19:40:03.692Z,98412.13
2023-03-29T19:42:30.362Z,98414.78
2023-03-29T19:44:56.866Z,98412.09
2023-03-29T19:47:23.335Z,98407.75
2023-03-29T19:49:50.250Z,98404.25
2023-03-29T19:52:16.731Z,98394.50
2023-03-29T19:54:44.198Z,98396.22
2023-03-29T19:57:10.711Z,98392.72
2023-03-29T19:59:37.831Z,98393.56
2023-03-29T20:02:04.646Z,98388.25
2023-03-29T20:04:33.318Z,98381.22
2023-03-29T20:07:00.039Z,98382.03
2023-03-29T20:09:26.547Z,98373.22
2023-03-29T20:11:53.004Z,98365.25
2023-03-29T20:14:19.593Z,98362.56
2023-03-29T20:16:46.554Z,98367.81
2023-03-29T20:19:17.818Z,98373.97
2023-03-29T20:21:44.556Z,98366.00
2023-03-29T20:24:15.060Z,98366.06
2023-03-29T20:26:41.557Z,98358.09
2023-03-29T20:29:08.328Z,98351.00
2023-03-29T20:31:35.004Z,98343.06
2023-03-29T20:34:01.534Z,98322.78
2023-03-29T20:36:30.638Z,98333.38
2023-03-29T20:38:59.145Z,98331.53
2023-03-29T20:41:26.172Z,98328.81
2023-03-29T20:43:58.406Z,98332.34
2023-03-29T20:46:38.050Z,98320.03
2023-03-29T20:49:07.310Z,98315.59
2023-03-29T20:51:33.828Z,98304.09
2023-03-29T20:54:02.815Z,98303.19
2023-03-29T20:56:35.635Z,98292.47
2023-03-29T20:59:03.869Z,98291.56
2023-03-29T21:01:30.664Z,98288.91
2023-03-29T21:03:57.324Z,98290.56
2023-03-29T21:06:26.690Z,98285.28
2023-03-29T21:08:53.166Z,98278.22
2023-03-29T21:11:20.896Z,98289.63
2023-03-29T21:13:47.629Z,98285.19
2023-03-29T21:16:14.304Z,98295.84
2023-03-29T21:18:41.571Z,98306.50
2023-03-29T21:21:09.954Z,98294.19
2023-03-29T21:23:37.145Z,98283.63
2023-03-29T21:26:06.737Z,98278.38
2023-03-29T21:28:34.055Z,98256.31
2023-03-29T21:31:05.066Z,98262.38
2023-03-29T21:33:32.231Z,98250.94
2023-03-29T21:35:58.827Z,98253.59
2023-03-29T21:38:25.346Z,98255.34
2023-03-29T21:40:51.916Z,98250.03
2023-03-29T21:43:18.582Z,98254.38
2023-03-29T21:45:49.583Z,98246.41
2023-03-29T21:48:19.533Z,98235.75
2023-03-29T21:50:49.127Z,98233.91
2023-03-29T21:53:16.098Z,98230.28
2023-03-29T21:55:42.619Z,98221.50
2023-03-29T21:58:09.125Z,98219.72
2023-03-29T22:00:35.830Z,98214.44
2023-03-29T22:03:02.405Z,98212.72
2023-03-29T22:05:28.890Z,98209.03
2023-03-29T22:07:58.702Z,98209.00
2023-03-29T22:10:25.500Z,98209.69
2023-03-29T22:12:52.550Z,98204.44
2023-03-29T22:15:22.651Z,98201.81
2023-03-29T22:17:52.900Z,98206.16
2023-03-29T22:20:19.874Z,98203.56
2023-03-29T22:22:52.338Z,98204.38
2023-03-29T22:25:19.565Z,98190.34
2023-03-29T22:27:47.869Z,98205.28
2023-03-29T22:30:15.602Z,98199.06
2023-03-29T22:32:42.366Z,98203.47
2023-03-29T22:35:09.372Z,98195.56
2023-03-29T22:37:46.077Z,98176.91
2023-03-29T22:40:16.222Z,98172.56
2023-03-29T22:42:42.758Z,98162.81
2023-03-29T22:45:09.868Z,98168.06
2023-03-29T22:47:36.375Z,98152.16
2023-03-29T22:50:03.141Z,98150.28
2023-03-29T22:52:29.628Z,98137.75
2023-03-29T22:54:59.370Z,98137.75
2023-03-29T22:57:26.115Z,98139.50
2023-03-29T22:59:52.585Z,98148.31
2023-03-29T23:02:19.088Z,98147.28
2023-03-29T23:04:45.767Z,98135.00
2023-03-29T23:07:12.349Z,98131.28
2023-03-29T23:09:38.816Z,98134.06
2023-03-29T23:12:05.539Z,98135.91
2023-03-29T23:14:35.523Z,98120.94
2023-03-29T23:17:01.985Z,98116.44
2023-03-29T23:19:28.528Z,98105.84
2023-03-29T23:21:55.193Z,98100.63
2023-03-29T23:24:21.770Z,98109.50
2023-03-29T23:26:48.977Z,98097.09
2023-03-29T23:29:15.493Z,98088.19
2023-03-29T23:31:41.995Z,98096.25
2023-03-29T23:34:09.301Z,98088.28
2023-03-29T23:36:36.934Z,98091.75
2023-03-29T23:39:07.086Z,98096.16
2023-03-29T23:41:33.823Z,98109.25
2023-03-29T23:44:00.359Z,98108.44
2023-03-29T23:46:26.815Z,98107.56
2023-03-29T23:48:56.148Z,98103.13
2023-03-29T23:51:23.082Z,98095.25
2023-03-29T23:53:50.445Z,98092.59
2023-03-29T23:56:16.936Z,98098.00
2023-03-29T23:58:44.456Z,98088.19
